Wetterdaten: Woche 08.11.10 - 14.11.10 (KW45)
Datum Zeit Temp. A. Feuchte A. Luftdruck Regen Wind Richtung Taupunkt Windchill Windben
08.11.2010 00:00 11,0 C 83 % 994,2 hPa 0,8 l/m 6,0 km/h S-SO 8,3 C 10,6 C 16,9 km/h
08.11.2010 01:00 10,8 C 84 % 994,5 hPa 0,3 l/m 2,7 km/h NW 8,1 C 10,8 C 7,6 km/h
08.11.2010 02:00 9,9 C 84 % 994,2 hPa 0,0 l/m 2,4 km/h W-SW 7,2 C 9,9 C 9,6 km/h
08.11.2010 03:00 9,3 C 79 % 994,1 hPa 0,0 l/m 5,4 km/h W-SW 5,8 C 9,3 C 16,5 km/h
08.11.2010 04:00 8,8 C 76 % 993,5 hPa 0,0 l/m 6,7 km/h W-SW 4,7 C 8,3 C 20,5 km/h
08.11.2010 05:00 8,4 C 74 % 992,8 hPa 0,0 l/m 8,8 km/h W-SW 4,0 C 6,6 C 27,3 km/h
08.11.2010 06:00 8,3 C 73 % 992,4 hPa 0,0 l/m 5,1 km/h W-SW 3,8 C 8,2 C 16,5 km/h
08.11.2010 07:00 8,0 C 77 % 992,6 hPa 1,8 l/m 0,2 km/h N 4,1 C 8,0 C 2,0 km/h
08.11.2010 08:00 7,4 C 81 % 992,1 hPa 0,0 l/m 0,6 km/h SW 4,2 C 7,4 C 4,4 km/h
08.11.2010 09:00 7,1 C 82 % 991,3 hPa 0,5 l/m 0,5 km/h N 4,3 C 7,1 C 6,0 km/h
08.11.2010 10:00 7,2 C 83 % 990,4 hPa 0,0 l/m 0,4 km/h N 4,4 C 7,2 C 4,4 km/h
08.11.2010 11:00 7,5 C 83 % 989,1 hPa 0,0 l/m 0,6 km/h NW 4,7 C 7,5 C 4,8 km/h
08.11.2010 12:00 7,8 C 80 % 987,8 hPa 0,0 l/m 0,7 km/h N 4,6 C 7,8 C 4,8 km/h
08.11.2010 13:00 8,1 C 78 % 986,5 hPa 0,0 l/m 0,2 km/h N 4,5 C 8,1 C 2,0 km/h
08.11.2010 14:00 7,9 C 80 % 985,2 hPa 0,0 l/m 0,2 km/h N 4,6 C 7,9 C 2,4 km/h
08.11.2010 15:00 7,6 C 83 % 983,9 hPa 0,0 l/m 0,3 km/h N 4,8 C 7,6 C 3,6 km/h
08.11.2010 16:00 7,4 C 84 % 983,2 hPa 0,0 l/m 0,1 km/h N 4,8 C 7,4 C 2,0 km/h
08.11.2010 17:00 7,2 C 84 % 982,4 hPa 0,0 l/m 0,1 km/h N 4,7 C 7,2 C 2,0 km/h
08.11.2010 18:00 7,2 C 84 % 981,5 hPa 0,0 l/m 0,3 km/h N 4,7 C 7,2 C 3,6 km/h
08.11.2010 19:00 7,2 C 84 % 981,0 hPa 0,0 l/m 0,3 km/h S 4,7 C 7,2 C 4,0 km/h
08.11.2010 20:00 7,5 C 84 % 980,4 hPa 0,0 l/m 1,9 km/h S 5,0 C 7,5 C 8,4 km/h
08.11.2010 21:00 8,2 C 84 % 979,8 hPa 0,0 l/m 4,0 km/h S-SO 5,7 C 8,2 C 16,1 km/h
08.11.2010 22:00 8,4 C 84 % 979,8 hPa 0,0 l/m 2,2 km/h S-SO 5,9 C 8,4 C 9,3 km/h
08.11.2010 23:00 7,7 C 84 % 980,2 hPa 0,0 l/m 2,4 km/h N-NW 5,2 C 7,7 C 7,6 km/h
09.11.2010 00:00 7,0 C 85 % 980,4 hPa 0,0 l/m 0,8 km/h N-NW 4,6 C 7,0 C 3,6 km/h
09.11.2010 01:00 5,8 C 84 % 981,2 hPa 0,0 l/m 0,0 km/h N 3,3 C 5,8 C 0,0 km/h
09.11.2010 02:00 5,6 C 85 % 981,7 hPa 0,0 l/m 0,8 km/h SW 3,2 C 5,6 C 4,4 km/h
09.11.2010 03:00 6,4 C 83 % 982,4 hPa 0,0 l/m 0,3 km/h N 3,7 C 6,4 C 3,2 km/h
09.11.2010 04:00 6,2 C 82 % 983,3 hPa 0,0 l/m 0,6 km/h N 3,3 C 6,2 C 4,8 km/h
09.11.2010 05:00 5,7 C 82 % 984,0 hPa 0,0 l/m 0,1 km/h N 2,8 C 5,7 C 2,8 km/h
09.11.2010 06:00 4,4 C 83 % 984,8 hPa 0,0 l/m 0,0 km/h N 1,7 C 4,4 C 0,0 km/h
09.11.2010 07:00 3,4 C 84 % 985,3 hPa 0,0 l/m 0,0 km/h N 0,9 C 3,4 C 0,0 km/h
09.11.2010 08:00 4,3 C 85 % 985,7 hPa 0,0 l/m 0,0 km/h N 1,9 C 4,3 C 0,4 km/h
09.11.2010 09:00 6,7 C 85 % 985,4 hPa 0,0 l/m 0,7 km/h O 4,3 C 6,7 C 4,4 km/h
09.11.2010 10:00 7,3 C 84 % 985,2 hPa 0,0 l/m 0,6 km/h N 4,8 C 7,3 C 3,6 km/h
09.11.2010 11:00 7,7 C 82 % 985,0 hPa 0,0 l/m 0,2 km/h N 4,8 C 7,7 C 2,8 km/h
09.11.2010 12:00 8,7 C 81 % 984,5 hPa 0,0 l/m 0,4 km/h O-SO 5,5 C 8,7 C 4,8 km/h
09.11.2010 13:00 11,0 C 75 % 984,1 hPa 0,0 l/m 4,7 km/h SO 6,8 C 11,0 C 20,1 km/h
09.11.2010 14:00 12,2 C 71 % 984,4 hPa 0,0 l/m 5,1 km/h O-SO 7,1 C 12,2 C 18,5 km/h
09.11.2010 15:00 11,9 C 71 % 984,3 hPa 0,0 l/m 4,6 km/h S-SO 6,8 C 11,9 C 17,7 km/h
09.11.2010 16:00 11,6 C 75 % 984,6 hPa 0,0 l/m 2,0 km/h SO 7,3 C 11,6 C 9,3 km/h
09.11.2010 17:00 11,2 C 79 % 984,6 hPa 0,0 l/m 0,5 km/h N 7,7 C 11,2 C 4,4 km/h
09.11.2010 18:00 10,8 C 81 % 984,8 hPa 1,3 l/m 0,1 km/h N 7,7 C 10,8 C 2,4 km/h
09.11.2010 19:00 10,5 C 83 % 984,6 hPa 1,8 l/m 0,1 km/h N 7,7 C 10,5 C 2,0 km/h
09.11.2010 20:00 10,0 C 84 % 983,6 hPa 0,0 l/m 0,6 km/h O-SO 7,4 C 10,0 C 3,6 km/h
09.11.2010 21:00 9,8 C 84 % 983,2 hPa 0,0 l/m 0,4 km/h SW 7,2 C 9,8 C 4,4 km/h
09.11.2010 22:00 9,5 C 84 % 983,3 hPa 0,0 l/m 2,2 km/h S-SW 7,0 C 9,5 C 9,3 km/h
09.11.2010 23:00 8,9 C 84 % 983,5 hPa 0,0 l/m 0,5 km/h N 6,4 C 8,9 C 4,4 km/h
10.11.2010 00:00 7,8 C 84 % 984,1 hPa 0,0 l/m 0,2 km/h N 5,4 C 7,8 C 2,0 km/h
10.11.2010 01:00 6,9 C 85 % 985,0 hPa 0,0 l/m 0,0 km/h N 4,5 C 6,9 C 0,8 km/h
10.11.2010 02:00 5,9 C 85 % 985,9 hPa 0,0 l/m 0,1 km/h N 3,6 C 5,9 C 1,2 km/h
10.11.2010 03:00 4,9 C 85 % 987,0 hPa 0,0 l/m 0,1 km/h N 2,6 C 4,9 C 1,6 km/h
10.11.2010 04:00 3,9 C 85 % 988,2 hPa 0,0 l/m 0,0 km/h N 1,6 C 3,9 C 0,0 km/h
10.11.2010 05:00 3,7 C 85 % 988,7 hPa 0,3 l/m 0,0 km/h N 1,4 C 3,7 C 1,6 km/h
10.11.2010 06:00 3,1 C 85 % 989,6 hPa 0,0 l/m 0,0 km/h N 0,8 C 3,1 C 0,8 km/h
10.11.2010 07:00 2,5 C 85 % 990,5 hPa 0,0 l/m 0,0 km/h N 0,2 C 2,5 C 0,8 km/h
10.11.2010 08:00 3,3 C 85 % 991,3 hPa 0,0 l/m 0,1 km/h N 1,0 C 3,3 C 0,8 km/h
10.11.2010 09:00 5,3 C 84 % 991,2 hPa 0,0 l/m 0,9 km/h W-NW 2,8 C 5,3 C 3,2 km/h
10.11.2010 10:00 6,4 C 84 % 991,8 hPa 0,0 l/m 0,5 km/h N 3,9 C 6,4 C 4,0 km/h
10.11.2010 11:00 7,0 C 84 % 992,4 hPa 0,0 l/m 1,3 km/h O-NO 4,5 C 7,0 C 5,2 km/h
10.11.2010 12:00 7,3 C 84 % 992,4 hPa 0,0 l/m 1,3 km/h NO 4,7 C 7,3 C 4,8 km/h
10.11.2010 13:00 8,3 C 84 % 992,8 hPa 0,0 l/m 0,8 km/h N 5,8 C 8,3 C 4,8 km/h
10.11.2010 14:00 8,7 C 85 % 993,4 hPa 0,0 l/m 0,9 km/h N-NW 6,3 C 8,7 C 4,0 km/h
10.11.2010 15:00 8,6 C 84 % 993,9 hPa 0,0 l/m 1,8 km/h N-NW 6,0 C 8,6 C 5,2 km/h
10.11.2010 16:00 8,3 C 82 % 994,9 hPa 0,0 l/m 1,8 km/h NW 5,4 C 8,3 C 6,8 km/h
10.11.2010 17:00 6,9 C 84 % 996,4 hPa 0,0 l/m 3,5 km/h N-NW 4,3 C 6,9 C 9,3 km/h
10.11.2010 18:00 6,4 C 85 % 997,5 hPa 0,0 l/m 1,8 km/h W-NW 4,1 C 6,4 C 6,8 km/h
10.11.2010 19:00 6,2 C 85 % 998,5 hPa 0,0 l/m 1,6 km/h W-SW 3,8 C 6,2 C 5,2 km/h
10.11.2010 20:00 5,3 C 85 % 999,2 hPa 0,0 l/m 0,1 km/h N 3,0 C 5,3 C 1,6 km/h
10.11.2010 21:00 4,0 C 85 % 1000,0 hPa 0,0 l/m 0,0 km/h N 1,7 C 4,0 C 0,0 km/h
10.11.2010 22:00 3,4 C 85 % 1000,6 hPa 0,0 l/m 0,0 km/h N 1,1 C 3,4 C 0,8 km/h
10.11.2010 23:00 3,3 C 85 % 1001,3 hPa 0,0 l/m 0,1 km/h N 1,0 C 3,3 C 1,2 km/h
11.11.2010 00:00 3,0 C 85 % 1002,0 hPa 0,0 l/m 0,0 km/h N 0,8 C 3,0 C 0,4 km/h
11.11.2010 01:00 3,0 C 85 % 1003,3 hPa 0,0 l/m 0,2 km/h N 0,8 C 3,0 C 2,4 km/h
11.11.2010 02:00 3,0 C 85 % 1004,1 hPa 0,0 l/m 0,4 km/h W-SW 0,7 C 3,0 C 4,8 km/h
11.11.2010 03:00 5,8 C 85 % 1004,4 hPa 0,0 l/m 4,3 km/h SW 3,3 C 5,6 C 17,7 km/h
11.11.2010 04:00 8,9 C 77 % 1005,1 hPa 0,0 l/m 10,5 km/h W-NW 5,0 C 6,1 C 29,8 km/h
11.11.2010 05:00 9,8 C 71 % 1005,9 hPa 0,0 l/m 13,8 km/h W 4,8 C 5,5 C 33,4 km/h
11.11.2010 06:00 9,4 C 73 % 1007,1 hPa 0,0 l/m 17,1 km/h W-NW 4,8 C 3,6 C 38,2 km/h
11.11.2010 07:00 8,8 C 72 % 1008,9 hPa 0,0 l/m 15,8 km/h W 4,0 C 3,3 C 33,4 km/h
11.11.2010 08:00 8,4 C 66 % 1010,7 hPa 0,0 l/m 13,4 km/h N-NW 2,4 C 4,1 C 34,2 km/h
11.11.2010 09:00 8,4 C 65 % 1012,0 hPa 0,0 l/m 9,4 km/h W 2,2 C 6,3 C 25,2 km/h
11.11.2010 10:00 8,6 C 64 % 1012,4 hPa 0,0 l/m 7,1 km/h S-SW 2,2 C 8,1 C 19,3 km/h
11.11.2010 11:00 9,1 C 59 % 1012,8 hPa 0,0 l/m 1,6 km/h NW 1,5 C 9,1 C 1,6 km/h
11.11.2010 12:00 9,8 C 57 % 1013,1 hPa 0,0 l/m 4,7 km/h NW 1,5 C 9,8 C 5,6 km/h
11.11.2010 14:00 9,5 C 58 % 1012,7 hPa 0,0 l/m 5,9 km/h N-NW 1,6 C 9,2 C 12,9 km/h
11.11.2010 15:00 9,6 C 58 % 1012,2 hPa 0,0 l/m 4,3 km/h N-NW 1,6 C 9,6 C 10,9 km/h
11.11.2010 16:00 8,7 C 61 % 1011,6 hPa 0,0 l/m 1,9 km/h N-NW 1,5 C 8,7 C 5,2 km/h
11.11.2010 17:00 7,4 C 66 % 1011,4 hPa 0,0 l/m 0,0 km/h N 1,5 C 7,4 C 0,4 km/h
11.11.2010 18:00 6,8 C 72 % 1011,2 hPa 0,0 l/m 0,6 km/h N 2,0 C 6,8 C 5,2 km/h
11.11.2010 19:00 7,3 C 70 % 1010,7 hPa 0,0 l/m 0,8 km/h S 2,2 C 7,3 C 6,8 km/h
11.11.2010 20:00 6,8 C 72 % 1009,9 hPa 0,0 l/m 0,8 km/h SO 2,1 C 6,8 C 6,8 km/h
11.11.2010 21:00 5,9 C 76 % 1008,7 hPa 0,0 l/m 1,0 km/h S-SO 1,9 C 5,9 C 6,8 km/h
11.11.2010 22:00 6,0 C 76 % 1006,9 hPa 0,0 l/m 2,9 km/h SO 2,1 C 6,0 C 15,3 km/h
11.11.2010 23:00 6,5 C 74 % 1005,4 hPa 0,0 l/m 2,5 km/h S-SO 2,2 C 6,5 C 11,3 km/h
12.11.2010 00:00 6,8 C 76 % 1004,0 hPa 0,0 l/m 1,4 km/h S 2,9 C 6,8 C 6,8 km/h
12.11.2010 01:00 7,6 C 76 % 1003,1 hPa 0,0 l/m 2,2 km/h O-SO 3,7 C 7,6 C 10,1 km/h
12.11.2010 02:00 7,4 C 77 % 1001,9 hPa 0,0 l/m 0,6 km/h N 3,6 C 7,4 C 5,6 km/h
12.11.2010 03:00 7,6 C 77 % 1001,0 hPa 0,0 l/m 0,3 km/h N 3,8 C 7,6 C 2,8 km/h
12.11.2010 04:00 7,3 C 79 % 1000,2 hPa 0,0 l/m 0,1 km/h N 4,0 C 7,3 C 1,2 km/h
12.11.2010 05:00 7,0 C 81 % 999,4 hPa 0,0 l/m 0,0 km/h N 4,0 C 7,0 C 1,6 km/h
12.11.2010 06:00 6,7 C 82 % 998,8 hPa 0,0 l/m 0,1 km/h N 3,8 C 6,7 C 2,8 km/h
12.11.2010 07:00 7,1 C 82 % 998,5 hPa 0,3 l/m 0,1 km/h N 4,2 C 7,1 C 2,0 km/h
12.11.2010 08:00 8,5 C 83 % 999,3 hPa 0,0 l/m 2,4 km/h SW 5,8 C 8,4 C 8,5 km/h
12.11.2010 09:00 11,2 C 82 % 1002,7 hPa 0,3 l/m 6,1 km/h W-SW 8,2 C 11,1 C 17,3 km/h
12.11.2010 10:00 10,8 C 82 % 1003,0 hPa 0,0 l/m 6,3 km/h W-SW 7,9 C 10,2 C 18,1 km/h
12.11.2010 11:00 10,8 C 80 % 1003,2 hPa 0,0 l/m 12,3 km/h SW 7,5 C 7,3 C 27,4 km/h
12.11.2010 12:00 10,9 C 77 % 1003,1 hPa 0,0 l/m 9,3 km/h W-SW 7,1 C 9,0 C 23,4 km/h
12.11.2010 13:00 11,5 C 72 % 1003,3 hPa 0,0 l/m 10,1 km/h SW 6,6 C 9,2 C 27,3 km/h
12.11.2010 14:00 11,7 C 69 % 1003,9 hPa 0,0 l/m 7,0 km/h SW 6,2 C 10,7 C 14,9 km/h
12.11.2010 15:00 11,5 C 69 % 1004,7 hPa 0,0 l/m 5,8 km/h W 6,0 C 11,4 C 18,1 km/h
12.11.2010 16:00 11,5 C 69 % 1005,1 hPa 0,0 l/m 8,0 km/h W-SW 5,9 C 10,5 C 21,3 km/h
12.11.2010 17:00 11,3 C 70 % 1005,1 hPa 0,0 l/m 8,0 km/h SW 6,0 C 10,2 C 21,3 km/h
12.11.2010 18:00 11,2 C 71 % 1005,6 hPa 0,0 l/m 2,8 km/h S-SW 6,0 C 11,2 C 10,1 km/h
12.11.2010 19:00 10,6 C 73 % 1005,4 hPa 0,0 l/m 3,0 km/h S 6,0 C 10,6 C 9,7 km/h
12.11.2010 20:00 10,7 C 74 % 1005,2 hPa 0,0 l/m 2,0 km/h S 6,3 C 10,7 C 10,4 km/h
12.11.2010 21:00 10,8 C 75 % 1005,1 hPa 0,0 l/m 3,3 km/h S 6,5 C 10,8 C 12,5 km/h
12.11.2010 22:00 11,2 C 72 % 1004,9 hPa 0,0 l/m 3,8 km/h S 6,4 C 11,2 C 13,3 km/h
12.11.2010 23:00 11,3 C 75 % 1004,4 hPa 0,0 l/m 1,0 km/h N 7,0 C 11,3 C 5,6 km/h
13.11.2010 00:00 12,1 C 80 % 1004,2 hPa 0,0 l/m 2,0 km/h S 8,7 C 12,1 C 8,9 km/h
13.11.2010 01:00 11,4 C 78 % 1004,3 hPa 0,0 l/m 0,3 km/h N 7,7 C 11,4 C 4,0 km/h
13.11.2010 02:00 10,0 C 82 % 1004,6 hPa 0,0 l/m 1,4 km/h S 7,0 C 10,0 C 6,8 km/h
13.11.2010 03:00 14,5 C 72 % 1004,4 hPa 0,0 l/m 4,6 km/h SW 9,3 C 14,5 C 16,9 km/h
13.11.2010 04:00 15,3 C 64 % 1004,7 hPa 0,0 l/m 2,0 km/h SW 8,6 C 15,3 C 9,3 km/h
13.11.2010 05:00 15,5 C 63 % 1005,1 hPa 0,0 l/m 5,6 km/h SW 8,4 C 15,3 C 14,5 km/h
13.11.2010 06:00 15,8 C 61 % 1005,5 hPa 0,0 l/m 5,6 km/h S 8,4 C 15,7 C 16,1 km/h
13.11.2010 07:00 16,1 C 59 % 1006,3 hPa 0,0 l/m 5,4 km/h W-SW 8,1 C 16,1 C 16,5 km/h
13.11.2010 08:00 17,1 C 57 % 1006,5 hPa 0,0 l/m 5,2 km/h W-SW 8,4 C 17,0 C 16,1 km/h
13.11.2010 09:00 18,7 C 52 % 1006,4 hPa 0,0 l/m 9,3 km/h W-SW 8,5 C 17,4 C 25,0 km/h
13.11.2010 10:00 19,3 C 50 % 1006,6 hPa 0,0 l/m 10,3 km/h S-SW 8,5 C 17,8 C 24,5 km/h
13.11.2010 11:00 18,3 C 56 % 1006,8 hPa 0,0 l/m 1,5 km/h S 9,2 C 18,3 C 7,6 km/h
13.11.2010 12:00 17,2 C 62 % 1006,6 hPa 0,0 l/m 1,0 km/h S 9,8 C 17,2 C 6,0 km/h
13.11.2010 13:00 17,4 C 63 % 1006,3 hPa 0,0 l/m 1,3 km/h S 10,2 C 17,4 C 6,5 km/h
13.11.2010 14:00 16,7 C 68 % 1006,1 hPa 0,0 l/m 0,1 km/h SO 10,7 C 16,7 C 1,6 km/h
13.11.2010 15:00 14,8 C 70 % 1006,1 hPa 0,0 l/m 1,6 km/h O 9,4 C 14,8 C 6,0 km/h
13.11.2010 16:00 12,3 C 75 % 1006,2 hPa 0,0 l/m 1,0 km/h O 7,9 C 12,3 C 4,4 km/h
13.11.2010 17:00 10,3 C 79 % 1006,2 hPa 0,0 l/m 0,2 km/h N 6,8 C 10,3 C 1,6 km/h
13.11.2010 18:00 9,2 C 82 % 1006,6 hPa 0,0 l/m 0,0 km/h N 6,2 C 9,2 C 1,2 km/h
13.11.2010 19:00 8,6 C 83 % 1006,5 hPa 0,0 l/m 0,0 km/h N 5,9 C 8,6 C 0,8 km/h
13.11.2010 20:00 7,2 C 83 % 1006,7 hPa 0,0 l/m 0,0 km/h N 4,5 C 7,2 C 0,8 km/h
13.11.2010 21:00 6,4 C 84 % 1007,0 hPa 0,0 l/m 0,0 km/h N 3,9 C 6,4 C 0,0 km/h
13.11.2010 22:00 5,8 C 84 % 1006,9 hPa 0,0 l/m 0,0 km/h N 3,4 C 5,8 C 0,4 km/h
13.11.2010 23:00 5,3 C 84 % 1007,3 hPa 0,0 l/m 0,0 km/h N 2,8 C 5,3 C 0,0 km/h
14.11.2010 00:00 5,0 C 85 % 1007,4 hPa 0,0 l/m 0,0 km/h N 2,7 C 5,0 C 0,0 km/h
14.11.2010 01:00 4,5 C 85 % 1007,7 hPa 0,0 l/m 0,0 km/h N 2,2 C 4,5 C 0,0 km/h
14.11.2010 02:00 3,9 C 85 % 1008,0 hPa 0,0 l/m 0,0 km/h N 1,6 C 3,9 C 0,0 km/h
14.11.2010 03:00 3,8 C 85 % 1008,4 hPa 0,0 l/m 0,0 km/h N 1,5 C 3,8 C 0,0 km/h
14.11.2010 04:00 3,6 C 85 % 1008,7 hPa 0,0 l/m 0,0 km/h N 1,3 C 3,6 C 0,4 km/h
14.11.2010 05:00 3,4 C 85 % 1009,4 hPa 0,0 l/m 0,0 km/h N 1,1 C 3,4 C 0,0 km/h
14.11.2010 06:00 3,8 C 85 % 1009,4 hPa 0,0 l/m 0,0 km/h N 1,5 C 3,8 C 0,0 km/h
14.11.2010 07:00 5,5 C 84 % 1009,6 hPa 0,0 l/m 0,0 km/h N 3,0 C 5,5 C 0,4 km/h
14.11.2010 08:00 6,5 C 84 % 1009,9 hPa 0,0 l/m 0,2 km/h N 3,9 C 6,5 C 2,0 km/h
14.11.2010 09:00 6,3 C 84 % 1009,9 hPa 0,0 l/m 0,1 km/h N 3,8 C 6,3 C 1,6 km/h
14.11.2010 10:00 6,7 C 84 % 1009,5 hPa 0,0 l/m 0,4 km/h N 4,1 C 6,7 C 2,4 km/h
14.11.2010 11:00 6,7 C 84 % 1009,2 hPa 0,0 l/m 0,9 km/h O 4,2 C 6,7 C 4,0 km/h
14.11.2010 12:00 7,5 C 83 % 1008,7 hPa 0,0 l/m 0,3 km/h N 4,8 C 7,5 C 4,4 km/h
14.11.2010 13:00 8,1 C 83 % 1008,3 hPa 0,0 l/m 0,2 km/h N 5,4 C 8,1 C 2,4 km/h
14.11.2010 14:00 8,8 C 83 % 1008,0 hPa 0,0 l/m 0,1 km/h S 6,1 C 8,8 C 2,0 km/h
14.11.2010 15:00 8,8 C 83 % 1008,1 hPa 0,0 l/m 1,3 km/h SW 6,1 C 8,8 C 5,6 km/h
14.11.2010 16:00 8,2 C 84 % 1007,8 hPa 0,0 l/m 0,0 km/h N 5,6 C 8,2 C 0,0 km/h
14.11.2010 17:00 6,4 C 84 % 1007,9 hPa 0,0 l/m 0,0 km/h N 4,0 C 6,4 C 0,4 km/h
14.11.2010 18:00 5,0 C 85 % 1008,1 hPa 0,0 l/m 0,0 km/h N 2,7 C 5,0 C 0,0 km/h
14.11.2010 19:00 4,3 C 85 % 1008,2 hPa 0,0 l/m 0,0 km/h N 2,0 C 4,3 C 0,0 km/h
14.11.2010 20:00 4,7 C 84 % 1008,3 hPa 0,0 l/m 0,1 km/h N 2,3 C 4,7 C 2,0 km/h
14.11.2010 21:00 5,2 C 84 % 1008,8 hPa 0,0 l/m 0,2 km/h N 2,7 C 5,2 C 2,4 km/h
14.11.2010 22:00 5,0 C 84 % 1009,3 hPa 0,0 l/m 0,1 km/h N 2,5 C 5,0 C 2,8 km/h
14.11.2010 23:00 4,8 C 84 % 1009,8 hPa 0,0 l/m 0,0 km/h N 2,3 C 4,8 C 1,2 km/h
Min-Datum _ 10.11.10 13.11.10 08.11.10 - 08.11.10 - 10.11.10 11.11.10 08.11.10
_ Min-Zeit 07:15 10:45 21:45 - 07:30 - 07:15 08:00 07:30
Minimum _ 2,3 C 49 % 979,3 hPa - 0,0 km/h - 0,1 C 2,3 C 0,0 km/h
Max-Datum _ 13.11.10 08.11.10 11.11.10 08.11.10 11.11.10 - 13.11.10 13.11.10 11.11.10
_ Max-Zeit 10:45 23:30 12:35 07:15 06:00 - 14:15 11:00 08:00
Maximum _ 19,4 C 85 % 1013,2 hPa 1,8 l/m 19,2 km/h
W-NW
- 11,0 C 19,3 C 48,3 km/h
S-SW
Durchschnitt _ 8,3 C 78 % 998,6 hPa #7,3 l/m 2,2 km/h W-SW 4,6 C 8,0 C 7,5 km/h